Time;durP1;ratioP1;P1;durP2;ratioP2;P2;SDS_P1;SDS_P2;PMS_P1;PMS_P2;Temp;Humidity;BMP_temperature;BMP_pressure;BME280_temperature;BME280_humidity;BME280_pressure;Samples;Min_cycle;Max_cycle;Signal;HPM_P1;HPM_P2
2022/05/10 00:01:24;;;;;;;11.10;4.47;;;;;;;11.55;100.00;62034.81;5095385;28;20678;-72
2022/05/10 00:03:53;;;;;;;9.67;5.03;;;;;;;10.95;100.00;61971.00;5095460;28;20256;-72
2022/05/10 00:06:20;;;;;;;9.43;4.33;;;;;;;10.81;100.00;61956.00;5095230;28;20195;-73
2022/05/10 00:08:47;;;;;;;6.67;4.13;;;;;;;11.54;100.00;62036.28;5095420;28;20203;-72
2022/05/10 00:11:14;;;;;;;8.70;4.63;;;;;;;11.46;100.00;62025.16;5095391;28;20667;-72
2022/05/10 00:13:40;;;;;;;7.03;3.90;;;;;;;11.23;100.00;62000.50;5095119;28;20256;-72
2022/05/10 00:16:10;;;;;;;13.60;4.60;;;;;;;11.10;100.00;61989.66;5095125;28;20192;-71
2022/05/10 00:18:37;;;;;;;6.73;4.37;;;;;;;11.15;100.00;61997.03;5095053;28;20735;-72
2022/05/10 00:21:06;;;;;;;6.77;4.23;;;;;;;11.28;100.00;62005.84;5095095;28;20211;-72
2022/05/10 00:23:33;;;;;;;9.10;4.80;;;;;;;11.26;100.00;62004.25;5095270;28;20237;-71
2022/05/10 00:26:00;;;;;;;7.90;4.77;;;;;;;11.26;100.00;62003.72;5094793;28;20253;-71
2022/05/10 00:28:27;;;;;;;8.50;4.93;;;;;;;11.13;100.00;61992.34;5094716;28;20292;-72
2022/05/10 00:30:54;;;;;;;12.77;5.33;;;;;;;11.12;100.00;61991.25;5094598;28;20196;-72
2022/05/10 00:33:26;;;;;;;14.03;4.50;;;;;;;11.27;100.00;62007.88;5094783;28;20658;-73
2022/05/10 00:35:53;;;;;;;10.13;4.03;;;;;;;10.59;100.00;61927.88;5094897;28;20234;-72
2022/05/10 00:38:26;;;;;;;6.33;4.10;;;;;;;11.26;100.00;62006.25;5094874;28;20203;-74
2022/05/10 00:40:53;;;;;;;5.73;3.63;;;;;;;11.26;100.00;62004.25;5094854;28;20265;-73
2022/05/10 00:43:26;;;;;;;9.47;4.40;;;;;;;11.14;100.00;61991.38;5094697;28;20260;-72
2022/05/10 00:45:58;;;;;;;7.70;4.43;;;;;;;11.20;100.00;62002.38;5094434;28;20199;-72
2022/05/10 00:48:32;;;;;;;10.13;5.10;;;;;;;10.90;100.00;61966.22;5094980;28;20231;-72
2022/05/10 00:51:09;;;;;;;8.53;5.47;;;;;;;10.80;100.00;61958.03;5094880;28;20199;-74
2022/05/10 00:53:50;;;;;;;9.80;4.70;;;;;;;11.24;100.00;62006.66;5094622;28;20200;-72
2022/05/10 00:56:26;;;;;;;10.40;4.73;;;;;;;11.09;100.00;61988.06;5095388;28;20196;-71
2022/05/10 00:58:59;;;;;;;8.47;4.73;;;;;;;11.05;100.00;61987.38;5096918;28;20195;-71
2022/05/10 01:01:29;;;;;;;8.37;5.10;;;;;;;11.02;100.00;61979.06;5095702;28;20257;-73
2022/05/10 01:04:03;;;;;;;11.10;5.37;;;;;;;11.05;100.00;61981.72;5094186;28;20247;-73
2022/05/10 01:06:37;;;;;;;13.37;5.13;;;;;;;10.97;100.00;61973.69;5093843;28;20324;-72
2022/05/10 01:09:11;;;;;;;9.10;3.10;;;;;;;11.07;100.00;61986.97;5094258;28;20203;-73
2022/05/10 01:11:45;;;;;;;8.57;4.37;;;;;;;11.10;100.00;61981.47;5086416;28;20207;-73
2022/05/10 01:14:17;;;;;;;8.40;3.60;;;;;;;11.22;100.00;61999.41;5094158;28;20195;-73
2022/05/10 01:16:44;;;;;;;9.63;4.40;;;;;;;10.76;100.00;61953.75;5093834;28;20257;-72
2022/05/10 01:19:13;;;;;;;22.93;6.23;;;;;;;10.67;100.00;61941.56;5093901;28;20248;-72
2022/05/10 01:21:52;;;;;;;36.50;7.20;;;;;;;11.33;100.00;62011.22;5093890;28;20363;-71
2022/05/10 01:24:50;;;;;;;11.23;3.93;;;;;;;11.34;100.00;62012.81;5094055;28;20264;-71
2022/05/10 01:27:42;;;;;;;5.47;2.73;;;;;;;11.42;100.00;62023.41;5093596;28;20227;-71
2022/05/10 01:30:14;;;;;;;4.47;2.40;;;;;;;11.43;100.00;62021.94;5090600;28;20223;-72
2022/05/10 01:35:41;;;;;;;7.93;2.70;;;;;;;11.33;100.00;62016.31;5093737;28;20312;-72
2022/05/10 01:38:28;;;;;;;4.20;2.43;;;;;;;11.41;100.00;62020.31;5093768;28;20196;-73
2022/05/10 01:41:03;;;;;;;5.03;2.23;;;;;;;11.23;100.00;62005.59;5093529;28;20196;-72
2022/05/10 01:43:39;;;;;;;4.80;1.90;;;;;;;11.27;100.00;62005.31;5093410;28;20190;-72
2022/05/10 01:46:13;;;;;;;4.50;2.10;;;;;;;11.20;100.00;61997.81;5093472;28;20245;-72
2022/05/10 01:48:43;;;;;;;6.47;2.37;;;;;;;11.14;100.00;61990.84;5093449;28;20306;-73
2022/05/10 01:51:16;;;;;;;4.77;2.10;;;;;;;11.13;100.00;61992.34;5093521;28;20199;-71
2022/05/10 01:53:43;;;;;;;3.60;2.00;;;;;;;11.16;100.00;61993.00;5094467;28;20196;-72
2022/05/10 01:56:13;;;;;;;6.10;2.13;;;;;;;11.05;100.00;61984.28;5094440;28;20718;-72
2022/05/10 01:58:42;;;;;;;3.53;2.10;;;;;;;10.92;100.00;61965.81;5094051;28;20269;-70
2022/05/10 02:01:20;;;;;;;17.67;7.50;;;;;;;10.82;100.00;61962.19;5093706;28;20204;-73
2022/05/10 02:03:56;;;;;;;5.43;3.23;;;;;;;10.64;100.00;61938.34;5093037;28;20689;-72
2022/05/10 02:06:30;;;;;;;4.77;3.10;;;;;;;10.68;100.00;61942.63;5093073;28;20252;-73
2022/05/10 02:09:02;;;;;;;10.03;3.60;;;;;;;10.40;100.00;61917.72;5093049;28;20231;-71
2022/05/10 02:11:30;;;;;;;8.83;3.17;;;;;;;10.92;100.00;61970.91;5093078;28;20200;-72
2022/05/10 02:14:03;;;;;;;8.30;3.87;;;;;;;10.79;100.00;61956.97;5092723;28;20686;-72
2022/05/10 02:16:35;;;;;;;9.13;3.70;;;;;;;10.71;100.00;61945.28;5092957;28;20199;-71
2022/05/10 02:19:08;;;;;;;7.80;3.10;;;;;;;10.63;100.00;61937.25;5092227;28;20207;-73
2022/05/10 02:21:39;;;;;;;6.63;2.80;;;;;;;10.70;100.00;61944.78;5092519;28;20260;-72
2022/05/10 02:24:10;;;;;;;13.23;4.13;;;;;;;10.43;100.00;61917.84;5092693;28;20196;-72
2022/05/10 02:26:43;;;;;;;6.50;2.90;;;;;;;10.54;100.00;61927.63;5092854;28;20203;-72
2022/05/10 02:29:17;;;;;;;5.43;3.07;;;;;;;10.61;100.00;61937.66;5092795;28;20288;-73
2022/05/10 02:34:37;;;;;;;5.80;2.70;;;;;;;10.67;100.00;61944.09;5092697;28;20340;-73
2022/05/10 02:37:04;;;;;;;7.30;2.60;;;;;;;10.63;100.00;61937.25;5092718;28;20778;-72
2022/05/10 02:39:31;;;;;;;2.57;2.00;;;;;;;10.68;100.00;61945.19;5092489;28;20199;-71
2022/05/10 02:41:59;;;;;;;6.50;3.20;;;;;;;10.67;100.00;61944.09;5092413;28;20723;-73
2022/05/10 02:44:26;;;;;;;8.80;2.50;;;;;;;9.72;100.00;61837.25;5092243;28;20215;-72
2022/05/10 02:46:55;;;;;;;9.70;2.70;;;;;;;10.80;100.00;61957.50;5091983;28;20195;-72
2022/05/10 02:49:22;;;;;;;4.27;3.00;;;;;;;10.83;100.00;61961.25;5092271;28;20284;-72
2022/05/10 02:51:49;;;;;;;6.83;2.80;;;;;;;10.87;100.00;61968.06;5092579;28;20668;-72
2022/05/10 02:54:17;;;;;;;13.47;3.23;;;;;;;10.78;100.00;61953.34;5092441;28;20256;-73
2022/05/10 02:56:45;;;;;;;9.40;3.43;;;;;;;10.81;100.00;61956.00;5092108;28;20203;-72
2022/05/10 02:59:16;;;;;;;9.47;2.60;;;;;;;10.70;100.00;61947.31;5092127;28;20207;-72
2022/05/10 03:01:50;;;;;;;5.07;2.50;;;;;;;10.68;100.00;61945.19;5092298;28;20671;-74
2022/05/10 03:04:19;;;;;;;5.77;3.03;;;;;;;10.61;100.00;61934.59;5092183;28;20663;-72
2022/05/10 03:06:47;;;;;;;6.93;3.00;;;;;;;10.58;100.00;61931.38;5091511;28;20253;-71
2022/05/10 03:09:15;;;;;;;10.50;3.47;;;;;;;10.37;100.00;61911.97;5093414;28;20235;-73
2022/05/10 03:11:43;;;;;;;9.17;3.40;;;;;;;10.38;100.00;61915.59;5092895;28;20245;-74
2022/05/10 03:14:12;;;;;;;8.90;3.13;;;;;;;10.25;100.00;61899.13;5092209;28;20290;-72
2022/05/10 03:16:39;;;;;;;8.57;3.23;;;;;;;10.25;100.00;61899.13;5091768;28;20200;-72
2022/05/10 03:19:06;;;;;;;6.40;3.23;;;;;;;10.26;100.00;61902.75;5091903;28;20195;-72
2022/05/10 03:21:38;;;;;;;14.63;4.47;;;;;;;10.36;100.00;61910.38;5091780;28;20252;-73
2022/05/10 03:24:06;;;;;;;6.17;3.07;;;;;;;10.28;100.00;61902.34;5091751;28;20290;-73
2022/05/10 03:26:33;;;;;;;8.63;3.43;;;;;;;10.29;100.00;61900.31;5091874;28;20630;-72
2022/05/10 03:29:00;;;;;;;7.50;3.20;;;;;;;10.35;100.00;61907.28;5091722;28;20235;-72
2022/05/10 03:31:28;;;;;;;10.57;3.20;;;;;;;10.46;100.00;61924.16;5091018;28;20207;-73
2022/05/10 03:36:52;;;;;;;12.33;3.93;;;;;;;10.55;100.00;61933.78;5029232;28;20324;-73
2022/05/10 03:39:19;;;;;;;8.83;3.80;;;;;;;10.51;100.00;61928.97;5046038;28;20597;-72
2022/05/10 03:41:46;;;;;;;8.93;4.00;;;;;;;10.48;100.00;61925.75;5051456;28;20265;-72
2022/05/10 03:44:13;;;;;;;12.03;4.70;;;;;;;10.41;100.00;61913.16;5051457;28;20258;-72
2022/05/10 03:46:40;;;;;;;10.57;4.33;;;;;;;10.62;100.00;61933.66;5051534;28;20712;-74
2022/05/10 03:49:06;;;;;;;10.70;4.70;;;;;;;10.13;100.00;61881.72;5051126;28;20225;-74
2022/05/10 03:51:33;;;;;;;10.57;4.80;;;;;;;10.53;100.00;61931.66;5051500;28;20200;-72
2022/05/10 03:54:01;;;;;;;8.77;4.50;;;;;;;10.59;100.00;61935.53;5051310;28;20633;-72
2022/05/10 03:56:28;;;;;;;6.03;4.00;;;;;;;10.62;100.00;61936.22;5049781;28;20205;-72
2022/05/10 03:58:55;;;;;;;16.03;5.43;;;;;;;10.80;100.00;61958.03;5051065;28;20676;-73
2022/05/10 04:01:23;;;;;;;8.80;3.90;;;;;;;10.84;100.00;61964.88;5051360;28;20196;-73
2022/05/10 04:03:51;;;;;;;11.97;3.60;;;;;;;10.02;100.00;61866.84;5051308;28;20205;-74
2022/05/10 04:06:19;;;;;;;9.63;4.00;;;;;;;11.05;100.00;61982.28;5051483;28;20201;-73
2022/05/10 04:08:47;;;;;;;14.23;4.10;;;;;;;11.36;100.00;62014.97;5051044;28;20278;-72
2022/05/10 04:11:15;;;;;;;5.67;3.70;;;;;;;11.39;100.00;62020.72;5051190;28;20633;-73
2022/05/10 04:13:44;;;;;;;8.97;4.20;;;;;;;11.48;100.00;62027.28;5051136;28;20239;-73
2022/05/10 04:16:13;;;;;;;10.93;4.90;;;;;;;11.39;100.00;62022.75;5050933;28;20197;-73
2022/05/10 04:18:41;;;;;;;14.17;4.70;;;;;;;11.29;100.00;62009.50;5050796;28;20341;-73
2022/05/10 04:21:08;;;;;;;23.63;6.23;;;;;;;11.26;100.00;62011.91;5051150;28;20201;-72
2022/05/10 04:23:36;;;;;;;37.70;7.80;;;;;;;11.49;100.00;62031.44;5050917;28;20205;-74
2022/05/10 04:26:05;;;;;;;11.17;3.30;;;;;;;11.82;100.00;62066.34;5051216;28;20197;-74
2022/05/10 04:28:34;;;;;;;7.77;2.40;;;;;;;11.64;100.00;62052.09;5050382;28;20251;-72
2022/05/10 04:31:02;;;;;;;5.23;2.60;;;;;;;11.36;100.00;62014.44;5050925;28;20622;-71
2022/05/10 04:33:29;;;;;;;5.87;2.77;;;;;;;11.58;100.00;62038.03;5050759;28;20201;-71
2022/05/10 04:35:56;;;;;;;5.33;2.63;;;;;;;11.79;100.00;62065.69;5071815;28;20239;-73
2022/05/10 04:38:23;;;;;;;8.13;2.40;;;;;;;11.91;100.00;62076.00;5091098;28;20200;-72
2022/05/10 04:43:38;;;;;;;14.77;3.60;;;;;;;12.06;100.00;62089.53;5094128;28;20228;-71
2022/05/10 04:46:05;;;;;;;5.50;2.83;;;;;;;12.20;100.00;62104.53;5094763;28;20257;-73
2022/05/10 04:48:33;;;;;;;4.97;3.20;;;;;;;12.22;100.00;62106.16;5094026;28;20228;-72
2022/05/10 04:51:01;;;;;;;3.90;2.77;;;;;;;12.28;100.00;62115.69;5094785;28;20196;-72
2022/05/10 04:53:28;;;;;;;10.33;3.43;;;;;;;12.08;100.00;62094.22;5076115;28;20628;-71
2022/05/10 04:55:55;;;;;;;5.53;3.13;;;;;;;12.10;100.00;62093.81;5094411;28;21068;-72
2022/05/10 04:58:23;;;;;;;11.20;3.13;;;;;;;12.12;100.00;62093.41;5094381;28;20245;-71
2022/05/10 05:00:51;;;;;;;30.00;5.23;;;;;;;12.51;100.00;62137.81;5098520;28;20324;-72
2022/05/10 05:03:19;;;;;;;6.80;3.70;;;;;;;12.78;100.00;62165.75;5101819;28;20203;-72
2022/05/10 05:05:45;;;;;;;16.87;3.80;;;;;;;13.12;100.00;62200.22;5094320;28;20266;-73
2022/05/10 05:08:12;;;;;;;11.40;3.30;;;;;;;13.00;100.00;62191.91;5093924;28;20269;-76
2022/05/10 05:10:40;;;;;;;10.80;3.50;;;;;;;13.25;100.00;62216.75;5094143;28;20196;-72
2022/05/10 05:13:07;;;;;;;8.80;3.13;;;;;;;13.48;100.00;62246.06;5094303;28;20256;-72
2022/05/10 05:15:34;;;;;;;9.63;3.10;;;;;;;13.54;100.00;62247.91;5093755;28;20666;-71
2022/05/10 05:18:03;;;;;;;9.37;3.13;;;;;;;13.62;100.00;62255.97;5094278;28;20245;-71
2022/05/10 05:20:30;;;;;;;10.47;3.03;;;;;;;13.89;100.00;62285.00;5095623;28;20195;-74
2022/05/10 05:22:57;;;;;;;10.43;3.10;;;;;;;14.01;100.00;62303.00;5094557;28;20269;-72
2022/05/10 05:25:24;;;;;;;6.67;3.20;;;;;;;14.10;100.00;62312.69;5093969;28;20616;-73
2022/05/10 05:27:51;;;;;;;7.53;3.30;;;;;;;14.10;100.00;62307.03;5093700;28;20219;-72
2022/05/10 05:30:18;;;;;;;6.13;3.00;;;;;;;14.41;100.00;62337.28;5093689;28;20280;-71
2022/05/10 05:32:45;;;;;;;4.73;3.33;;;;;;;14.69;100.00;62370.47;5093772;28;20191;-72
2022/05/10 05:35:13;;;;;;;5.60;3.63;;;;;;;14.77;100.00;62378.56;5093879;28;20584;-72
2022/05/10 05:37:40;;;;;;;8.40;3.43;;;;;;;15.15;100.00;62424.59;5093461;28;20200;-71
2022/05/10 05:40:09;;;;;;;11.17;3.70;;;;;;;15.35;100.00;62443.53;5093899;28;20249;-73
2022/05/10 05:42:37;;;;;;;9.70;4.03;;;;;;;15.36;100.00;62444.59;5093417;28;20203;-72
2022/05/10 05:45:05;;;;;;;16.90;4.47;;;;;;;15.74;100.00;62482.41;5093227;28;20257;-72
2022/05/10 05:47:33;;;;;;;8.10;3.93;;;;;;;15.79;100.00;62490.38;5093280;28;20629;-72
2022/05/10 05:49:59;;;;;;;12.73;3.73;;;;;;;15.81;100.00;62489.97;5093155;28;20227;-72
2022/05/10 05:52:29;;;;;;;15.23;4.33;;;;;;;16.17;100.00;62525.63;5093562;28;20665;-71
2022/05/10 05:54:58;;;;;;;7.93;3.83;;;;;;;16.45;100.00;62555.78;5093360;28;20233;-74
2022/05/10 05:57:25;;;;;;;8.33;3.50;;;;;;;16.74;100.00;62592.75;5093364;28;20210;-73
2022/05/10 05:59:54;;;;;;;6.40;3.53;;;;;;;16.10;100.00;62520.66;5093117;28;20192;-70
2022/05/10 06:02:22;;;;;;;6.03;3.50;;;;;;;16.39;100.00;62551.91;5093119;28;20196;-74
2022/05/10 06:04:51;;;;;;;11.30;3.30;;;;;;;16.42;100.00;62555.13;5093009;28;20257;-71
2022/05/10 06:07:18;;;;;;;14.83;3.17;;;;;;;16.23;100.00;62539.81;5093326;28;20203;-73
2022/05/10 06:09:47;;;;;;;9.63;2.90;;;;;;;16.27;100.00;62541.53;5092797;28;20705;-72
2022/05/10 06:12:16;;;;;;;21.57;3.67;;;;;;;16.51;100.00;62565.38;5093119;28;20200;-72
2022/05/10 06:14:43;;;;;;;8.83;3.30;;;;;;;16.65;100.00;62580.47;5092935;28;20204;-73
2022/05/10 06:17:13;;;;;;;13.20;3.30;;;;;;;16.75;100.00;62595.84;5092958;28;20211;-71
2022/05/10 06:19:41;;;;;;;11.27;3.20;;;;;;;17.10;100.00;62627.91;5092822;28;20225;-71
2022/05/10 06:22:10;;;;;;;9.20;3.47;;;;;;;17.45;100.00;62665.63;5092678;28;20199;-72
2022/05/10 06:24:38;;;;;;;16.57;6.60;;;;;;;17.75;100.00;62695.44;5092814;28;20196;-72
2022/05/10 06:27:15;;;;;;;13.33;5.70;;;;;;;18.03;100.00;62727.69;5092435;28;20215;-71
2022/05/10 06:29:42;;;;;;;9.67;4.80;;;;;;;18.23;100.00;62749.28;5092375;28;20227;-74
2022/05/10 06:32:11;;;;;;;15.37;5.47;;;;;;;18.43;100.00;62771.41;5092423;28;20277;-71
2022/05/10 06:34:40;;;;;;;29.53;6.33;;;;;;;18.35;100.00;62759.66;5092605;28;20687;-74
2022/05/10 06:38:16;;;;;;;14.97;5.37;;;;;;;18.63;100.00;62792.47;5092424;28;20232;-73
2022/05/10 06:40:06;;;;;;;18.40;5.87;;;;;;;18.48;100.00;62779.41;5092189;28;20210;-73
2022/05/10 06:42:34;;;;;;;16.90;6.37;;;;;;;18.81;100.00;62809.34;5092571;28;20282;-73
2022/05/10 06:45:01;;;;;;;25.57;7.90;;;;;;;18.76;100.00;62806.50;5092328;28;20195;-73
2022/05/10 06:47:28;;;;;;;20.97;6.37;;;;;;;18.87;100.00;62817.84;5103795;28;20253;-72
2022/05/10 06:49:55;;;;;;;19.37;6.80;;;;;;;19.34;100.00;62869.16;5095576;28;20284;-71
2022/05/10 06:52:21;;;;;;;17.03;5.37;;;;;;;19.13;100.00;62851.63;5092202;28;20674;-72
2022/05/10 06:54:48;;;;;;;13.73;5.70;;;;;;;19.31;100.00;62865.91;5092260;28;20573;-72
2022/05/10 06:57:15;;;;;;;13.57;5.17;;;;;;;19.02;100.00;62834.03;5092239;28;20256;-72
2022/05/10 06:59:43;;;;;;;22.80;5.73;;;;;;;19.20;100.00;62854.03;5092375;28;20206;-72
2022/05/10 07:02:10;;;;;;;22.70;4.83;;;;;;;18.83;100.00;62814.06;5092270;28;20258;-71
2022/05/10 07:04:37;;;;;;;19.87;6.03;;;;;;;19.79;100.00;62916.72;5091522;28;20200;-72
2022/05/10 07:07:04;;;;;;;18.10;4.20;;;;;;;20.14;100.00;62954.56;5092018;28;20678;-72
2022/05/10 07:09:31;;;;;;;16.73;5.13;;;;;;;20.43;100.00;62985.94;5091687;28;20227;-72
2022/05/10 07:11:58;;;;;;;14.73;4.87;;;;;;;20.41;100.00;62983.22;5091669;28;20196;-73
2022/05/10 07:14:24;;;;;;;19.27;5.30;;;;;;;20.72;100.00;63012.13;5091625;28;20203;-72
2022/05/10 07:16:54;;;;;;;16.83;5.60;;;;;;;20.76;100.00;63023.66;5091456;28;20192;-73
2022/05/10 07:19:21;;;;;;;39.30;7.93;;;;;;;20.50;100.00;62990.91;5091504;28;20272;-71
2022/05/10 07:21:48;;;;;;;15.37;5.43;;;;;;;20.54;100.00;63002.47;5073738;28;20683;-73
2022/05/10 07:24:16;;;;;;;15.23;5.20;;;;;;;20.45;100.00;62993.25;5091575;28;20757;-71
2022/05/10 07:26:45;;;;;;;15.37;4.87;;;;;;;20.27;100.00;62966.03;5091513;28;20256;-72
2022/05/10 07:29:12;;;;;;;19.40;5.83;;;;;;;20.70;100.00;63009.41;5091520;28;20317;-72
2022/05/10 07:31:39;;;;;;;21.90;5.13;;;;;;;21.03;100.00;63050.84;5092453;28;20196;-71
2022/05/10 07:34:08;;;;;;;14.50;4.77;;;;;;;20.98;100.00;63048.03;5091585;28;20192;-72
2022/05/10 07:36:36;;;;;;;18.00;4.70;;;;;;;20.65;100.00;63009.72;5091603;28;20227;-71
2022/05/10 07:39:06;;;;;;;17.47;4.40;;;;;;;20.92;100.00;63038.94;5091529;28;20612;-74
2022/05/10 07:41:33;;;;;;;14.60;4.27;;;;;;;21.13;100.00;63060.59;5091202;28;20627;-73
2022/05/10 07:44:00;;;;;;;10.73;4.20;;;;;;;21.61;100.00;63113.06;5091340;28;20256;-72
2022/05/10 07:46:28;;;;;;;14.07;3.77;;;;;;;21.47;92.32;63094.81;5091210;28;20196;-73
2022/05/10 07:48:55;;;;;;;9.23;3.77;;;;;;;21.47;100.00;63097.41;5091313;28;20191;-72
2022/05/10 07:51:24;;;;;;;17.17;4.20;;;;;;;21.56;100.00;63104.53;5090976;28;20195;-72
2022/05/10 07:53:51;;;;;;;7.30;3.47;;;;;;;21.89;95.81;63142.91;5091073;28;20693;-71
2022/05/10 07:56:18;;;;;;;22.83;5.00;;;;;;;22.15;94.50;63173.66;5091393;28;20195;-74
2022/05/10 07:58:45;;;;;;;20.87;3.97;;;;;;;21.70;92.54;63120.25;5091190;28;20596;-72
2022/05/10 08:01:11;;;;;;;11.93;3.20;;;;;;;21.83;86.70;63136.41;5091261;28;20662;-74
2022/05/10 08:03:39;;;;;;;15.23;3.60;;;;;;;21.61;86.21;63109.97;5091224;28;20199;-73
2022/05/10 08:06:06;;;;;;;7.27;3.00;;;;;;;21.59;85.23;63115.56;5091183;28;20203;-72
2022/05/10 08:08:34;;;;;;;7.90;3.17;;;;;;;21.96;80.61;63149.91;5090968;28;20208;-71
2022/05/10 08:11:02;;;;;;;7.53;2.40;;;;;;;22.28;76.91;63184.56;5091151;28;20733;-73
2022/05/10 08:13:31;;;;;;;7.50;2.27;;;;;;;22.47;73.38;63205.72;5090882;28;20666;-72
2022/05/10 08:16:00;;;;;;;11.73;2.70;;;;;;;22.95;67.96;63251.47;5091218;28;20248;-74
2022/05/10 08:18:28;;;;;;;7.20;2.97;;;;;;;22.31;63.40;63190.97;5094505;28;20290;-72
2022/05/10 08:20:58;;;;;;;21.30;11.33;;;;;;;22.96;63.88;63257.75;5095110;28;20196;-71
2022/05/10 08:23:27;;;;;;;4.70;2.27;;;;;;;22.98;56.57;63257.31;5094876;28;20651;-71
2022/05/10 08:25:58;;;;;;;3.97;2.07;;;;;;;22.67;54.70;63227.41;5094947;28;20195;-72
2022/05/10 08:28:27;;;;;;;9.50;2.30;;;;;;;22.13;53.27;63171.47;5094825;28;20279;-72
2022/05/10 08:30:54;;;;;;;3.03;1.97;;;;;;;23.03;52.55;63262.72;5099852;28;20233;-71
2022/05/10 08:33:25;;;;;;;4.93;2.00;;;;;;;22.83;47.99;63243.66;5102986;28;20207;-73
2022/05/10 08:35:53;;;;;;;5.00;2.50;;;;;;;23.21;49.66;63282.78;5095185;28;20235;-72
2022/05/10 08:38:20;;;;;;;5.17;1.87;;;;;;;23.60;50.21;63326.63;5094780;28;20200;-72
2022/05/10 08:40:50;;;;;;;15.27;3.30;;;;;;;23.77;52.31;63345.59;5094673;28;20203;-73
2022/05/10 08:43:23;;;;;;;4.33;2.27;;;;;;;23.41;48.64;63306.53;5095478;28;20727;-73
2022/05/10 08:45:50;;;;;;;8.87;2.27;;;;;;;24.01;46.78;63373.69;5094928;28;20195;-72
2022/05/10 08:48:17;;;;;;;6.43;2.17;;;;;;;24.15;46.58;63386.28;5094836;28;20211;-72
2022/05/10 08:50:47;;;;;;;6.60;2.37;;;;;;;24.24;45.02;63391.41;5094557;28;20304;-72
2022/05/10 08:53:15;;;;;;;5.10;1.90;;;;;;;24.18;45.87;63389.56;5094370;28;20203;-71
2022/05/10 08:55:46;;;;;;;5.07;2.00;;;;;;;24.12;45.48;63377.84;5094561;28;20205;-72
2022/05/10 08:58:36;;;;;;;4.47;1.80;;;;;;;24.31;44.58;63398.97;5094329;28;20249;-71
2022/05/10 09:01:08;;;;;;;2.30;2.00;;;;;;;24.54;44.63;63425.47;5094241;28;20200;-72
2022/05/10 09:03:40;;;;;;;7.93;4.23;;;;;;;24.46;45.39;63419.38;5094158;28;20287;-72
2022/05/10 09:06:18;;;;;;;7.27;2.70;;;;;;;24.88;46.04;63459.78;5093938;28;20698;-72
2022/05/10 09:08:57;;;;;;;6.40;1.90;;;;;;;24.99;45.63;63476.97;5094052;28;20660;-74
2022/05/10 09:11:26;;;;;;;2.80;1.90;;;;;;;25.31;45.60;63511.72;5093949;28;20238;-72
2022/05/10 09:13:57;;;;;;;4.23;2.20;;;;;;;25.23;44.80;63502.47;5093589;28;20225;-73
2022/05/10 09:16:25;;;;;;;2.97;2.17;;;;;;;25.50;42.92;63531.81;5093786;28;20633;-72
2022/05/10 09:18:55;;;;;;;4.67;2.20;;;;;;;24.73;44.76;63446.66;5093913;28;20254;-72
2022/05/10 09:21:24;;;;;;;4.17;2.30;;;;;;;24.28;46.31;63397.78;5093971;28;20733;-73
2022/05/10 09:24:09;;;;;;;5.23;2.47;;;;;;;24.65;48.47;63437.94;5093706;28;20278;-72
2022/05/10 09:26:39;;;;;;;6.33;2.70;;;;;;;24.43;46.84;63416.16;5093489;28;20193;-72
2022/05/10 09:29:14;;;;;;;4.50;2.23;;;;;;;24.33;47.53;63405.28;5093371;28;20283;-73
2022/05/10 09:37:16;;;;;;;8.00;2.73;;;;;;;24.89;47.37;63466.09;5093471;28;20305;-72
2022/05/10 09:39:49;;;;;;;4.30;2.20;;;;;;;25.26;47.43;63501.06;5093603;28;20670;-73
2022/05/10 09:42:27;;;;;;;7.27;2.20;;;;;;;25.41;46.36;63517.38;5094622;28;20209;-72
2022/05/10 09:45:04;;;;;;;4.97;2.43;;;;;;;25.74;47.40;63557.88;5093295;28;20200;-71
2022/05/10 09:47:32;;;;;;;6.13;2.30;;;;;;;25.79;46.06;63558.09;5093128;28;20199;-72
2022/05/10 09:50:19;;;;;;;4.37;2.23;;;;;;;25.30;44.66;63505.38;5093112;28;20314;-72
2022/05/10 09:52:47;;;;;;;3.33;2.20;;;;;;;25.72;48.05;63553.09;5093029;28;20202;-73
2022/05/10 09:55:27;;;;;;;3.83;2.40;;;;;;;25.92;45.69;63575.38;5093465;28;20191;-71
2022/05/10 09:57:57;;;;;;;5.53;2.00;;;;;;;26.18;44.68;63610.41;5092990;28;20203;-73
2022/05/10 10:00:41;;;;;;;5.37;2.40;;;;;;;25.81;43.30;63563.44;5093168;28;20223;-73
2022/05/10 10:03:09;;;;;;;2.33;2.03;;;;;;;25.34;44.26;63517.56;5092978;28;20691;-73
2022/05/10 10:05:38;;;;;;;3.10;2.27;;;;;;;25.18;46.81;63497.56;5092876;28;20664;-73
2022/05/10 10:08:07;;;;;;;2.60;1.97;;;;;;;25.51;45.16;63532.91;5092774;28;20595;-73
2022/05/10 10:10:35;;;;;;;4.20;2.20;;;;;;;25.00;45.38;63478.56;5092815;28;20231;-74
2022/05/10 10:13:28;;;;;;;7.23;2.60;;;;;;;25.46;46.07;63528.00;5093163;28;20200;-72
2022/05/10 10:15:57;;;;;;;7.87;2.00;;;;;;;25.85;45.17;63573.00;5106204;28;20271;-70
2022/05/10 10:18:43;;;;;;;6.57;2.53;;;;;;;26.23;45.73;63608.56;5093908;28;20199;-72
2022/05/10 10:21:14;;;;;;;5.03;2.10;;;;;;;26.22;42.87;63606.94;5092874;28;20294;-73
2022/05/10 10:23:48;;;;;;;4.53;2.40;;;;;;;26.74;44.08;63666.09;5092812;28;20217;-73
2022/05/10 10:26:26;;;;;;;5.50;2.30;;;;;;;26.68;42.74;63656.94;5092701;28;20195;-72
2022/05/10 10:28:57;;;;;;;3.50;2.47;;;;;;;27.10;41.98;63704.69;5092557;28;20228;-72
2022/05/10 10:31:30;;;;;;;7.50;2.47;;;;;;;27.20;40.66;63716.13;5092524;28;20341;-72
2022/05/10 10:34:04;;;;;;;7.20;2.60;;;;;;;27.63;40.82;63756.59;5092333;28;20200;-73
2022/05/10 10:36:35;;;;;;;13.60;3.20;;;;;;;27.36;40.96;63733.00;5092303;28;20235;-71
2022/05/10 10:39:08;;;;;;;21.30;3.23;;;;;;;27.52;40.93;63750.97;5092545;28;20292;-72
2022/05/10 10:41:43;;;;;;;11.23;2.97;;;;;;;27.07;39.43;63701.97;5091743;28;20658;-72
2022/05/10 10:44:19;;;;;;;2.30;2.10;;;;;;;26.98;41.06;63692.19;5092371;28;20249;-72
2022/05/10 10:47:09;;;;;;;5.27;2.40;;;;;;;26.52;40.62;63642.16;5092316;28;20199;-72
2022/05/10 10:49:43;;;;;;;4.43;2.80;;;;;;;26.79;40.94;63671.53;5092161;28;20727;-72
2022/05/10 10:52:10;;;;;;;5.87;2.30;;;;;;;27.43;40.52;63743.78;5092164;28;20765;-72
2022/05/10 10:54:38;;;;;;;6.83;2.37;;;;;;;27.77;38.91;63777.09;5092319;28;20203;-72
2022/05/10 10:57:32;;;;;;;3.03;2.13;;;;;;;27.83;38.91;63784.16;5092174;28;20200;-73
2022/05/10 11:00:10;;;;;;;5.70;2.20;;;;;;;27.65;37.26;63764.03;5092348;28;20244;-71
2022/05/10 11:03:01;;;;;;;7.30;2.60;;;;;;;27.32;37.82;63728.63;5091880;28;20302;-72
2022/05/10 11:06:22;;;;;;;4.67;2.30;;;;;;;27.59;37.09;63761.19;5091982;28;20257;-72
2022/05/10 11:09:13;;;;;;;9.93;2.40;;;;;;;26.61;38.41;63651.94;5071413;28;20200;-71
2022/05/10 11:11:57;;;;;;;2.67;2.20;;;;;;;26.71;39.04;63658.13;5089508;28;20313;-72
2022/05/10 11:14:38;;;;;;;5.87;2.83;;;;;;;27.28;39.72;63719.59;5091875;28;20195;-73
2022/05/10 11:17:15;;;;;;;4.03;2.23;;;;;;;26.95;38.12;63688.38;5091908;28;20199;-72
2022/05/10 11:20:01;;;;;;;6.43;2.37;;;;;;;26.61;38.21;63649.31;5091632;28;20196;-71
2022/05/10 11:22:37;;;;;;;4.20;2.40;;;;;;;26.71;37.45;63662.81;5091899;28;20638;-72
2022/05/10 11:25:14;;;;;;;9.00;2.47;;;;;;;27.11;38.70;63706.31;5091563;28;20282;-74
2022/05/10 11:28:04;;;;;;;8.33;2.40;;;;;;;27.71;37.55;63770.56;5091930;28;20257;-72
2022/05/10 11:30:41;;;;;;;4.80;2.00;;;;;;;28.38;35.49;63846.13;5091962;28;20229;-73
2022/05/10 11:33:20;;;;;;;3.27;2.27;;;;;;;28.94;34.69;63899.28;5091819;28;20629;-74
2022/05/10 11:35:58;;;;;;;5.87;2.40;;;;;;;28.83;34.21;63892.53;5073308;28;20224;-73
2022/05/10 11:39:00;;;;;;;6.07;2.30;;;;;;;28.15;34.52;63818.47;5091498;28;20290;-72
2022/05/10 11:41:36;;;;;;;3.43;2.07;;;;;;;27.66;34.04;63765.09;5041841;28;20704;-73
2022/05/10 11:44:27;;;;;;;5.27;2.30;;;;;;;27.62;34.32;63761.31;5091334;28;20727;-72
2022/05/10 11:47:32;;;;;;;3.77;2.17;;;;;;;28.20;34.85;63826.53;5091244;28;20663;-72
2022/05/10 11:50:25;;;;;;;5.20;2.60;;;;;;;28.09;34.76;63811.94;5087969;28;20728;-72
2022/05/10 11:53:23;;;;;;;7.67;2.80;;;;;;;27.67;35.06;63760.97;5095828;28;20276;-73
2022/05/10 11:55:54;;;;;;;9.67;2.57;;;;;;;27.83;34.75;63778.38;5095623;28;20203;-73
2022/05/10 11:58:23;;;;;;;5.17;2.57;;;;;;;28.53;34.95;63859.84;5099367;28;20199;-72
2022/05/10 12:00:52;;;;;;;7.20;2.40;;;;;;;29.00;34.51;63910.50;5103837;28;20596;-73